createdAt,value
2023-05-01T00:01:26.870Z,2.70
2023-05-01T00:03:54.695Z,2.20
2023-05-01T00:06:21.195Z,2.23
2023-05-01T00:08:47.808Z,2.10
2023-05-01T00:11:14.571Z,2.60
2023-05-01T00:13:41.205Z,2.40
2023-05-01T00:16:12.540Z,2.53
2023-05-01T00:18:39.355Z,1.90
2023-05-01T00:21:05.910Z,2.20
2023-05-01T00:23:32.288Z,2.30
2023-05-01T00:25:58.730Z,2.20
2023-05-01T00:28:25.229Z,2.30
2023-05-01T00:30:51.872Z,2.47
2023-05-01T00:33:18.182Z,2.00
2023-05-01T00:35:45.334Z,2.30
2023-05-01T00:38:12.044Z,2.47
2023-05-01T00:40:45.194Z,2.30
2023-05-01T00:43:12.740Z,2.07
2023-05-01T00:45:40.473Z,2.00
2023-05-01T00:48:07.166Z,2.30
2023-05-01T00:50:33.652Z,2.10
2023-05-01T00:53:00.318Z,2.17
2023-05-01T00:55:26.952Z,2.17
2023-05-01T00:57:55.149Z,2.37
2023-05-01T01:00:24.430Z,1.93
2023-05-01T01:02:51.268Z,2.10
2023-05-01T01:05:18.827Z,2.17
2023-05-01T01:07:55.826Z,2.30
2023-05-01T01:10:22.125Z,1.80
2023-05-01T01:13:21.511Z,2.53
2023-05-01T01:16:04.131Z,2.10
2023-05-01T01:18:40.217Z,2.77
2023-05-01T01:21:38.113Z,2.30
2023-05-01T01:24:46.336Z,2.90
2023-05-01T01:27:39.764Z,2.47
2023-05-01T01:30:31.861Z,2.50
2023-05-01T01:33:36.158Z,2.50
2023-05-01T01:36:09.121Z,2.40
2023-05-01T01:38:42.534Z,2.30
2023-05-01T01:41:13.535Z,2.50
2023-05-01T01:43:45.755Z,2.17
2023-05-01T01:46:12.854Z,2.57
2023-05-01T01:48:43.375Z,2.40
2023-05-01T01:51:14.631Z,2.30
2023-05-01T01:53:43.394Z,2.20
2023-05-01T01:56:10.731Z,2.37
2023-05-01T01:58:39.861Z,2.50
2023-05-01T02:01:07.560Z,2.43
2023-05-01T02:03:34.955Z,2.33
2023-05-01T02:06:02.532Z,2.17
2023-05-01T02:08:31.674Z,2.67
2023-05-01T02:11:02.050Z,2.10
2023-05-01T02:13:29.981Z,2.33
2023-05-01T02:15:58.811Z,2.20
2023-05-01T02:18:29.335Z,2.20
2023-05-01T02:20:57.994Z,2.17
2023-05-01T02:23:26.145Z,2.27
2023-05-01T02:25:53.666Z,2.23
2023-05-01T02:28:26.784Z,2.73
2023-05-01T02:30:53.342Z,2.30
2023-05-01T02:33:19.760Z,2.67
2023-05-01T02:35:47.436Z,2.17
2023-05-01T02:38:16.184Z,2.33
2023-05-01T02:40:52.057Z,2.40
2023-05-01T02:43:21.261Z,2.40
2023-05-01T02:45:49.274Z,2.73
2023-05-01T02:48:20.344Z,2.60
2023-05-01T02:50:48.613Z,2.20
2023-05-01T02:53:16.265Z,2.87
2023-05-01T02:55:43.302Z,2.33
2023-05-01T02:58:15.334Z,2.80
2023-05-01T03:00:42.190Z,2.40
2023-05-01T03:03:08.742Z,2.70
2023-05-01T03:05:35.181Z,2.37
2023-05-01T03:08:01.623Z,2.90
2023-05-01T03:10:28.096Z,2.23
2023-05-01T03:12:54.412Z,2.70
2023-05-01T03:15:20.795Z,2.70
2023-05-01T03:17:47.403Z,2.57
2023-05-01T03:20:13.822Z,2.60
2023-05-01T03:22:40.179Z,2.63
2023-05-01T03:25:06.999Z,3.10
2023-05-01T03:27:33.389Z,2.70
2023-05-01T03:29:59.697Z,3.10
2023-05-01T03:32:26.235Z,3.27
2023-05-01T03:34:52.680Z,3.30
2023-05-01T03:37:19.084Z,3.50
2023-05-01T03:39:47.212Z,3.40
2023-05-01T03:42:13.564Z,3.20
2023-05-01T03:44:39.940Z,3.73
2023-05-01T03:47:06.497Z,3.50
2023-05-01T03:49:32.858Z,3.93
2023-05-01T03:51:59.183Z,3.53
2023-05-01T03:54:25.929Z,4.00
2023-05-01T03:56:52.579Z,4.00
2023-05-01T03:59:18.964Z,4.07
2023-05-01T04:01:45.882Z,3.67
2023-05-01T04:04:12.347Z,3.30
2023-05-01T04:06:38.905Z,3.57
2023-05-01T04:09:05.429Z,3.43
2023-05-01T04:11:31.804Z,3.87
2023-05-01T04:13:58.153Z,3.63
2023-05-01T04:16:24.915Z,3.30
2023-05-01T04:18:52.756Z,3.77
2023-05-01T04:21:19.313Z,3.87
2023-05-01T04:23:45.814Z,3.60
2023-05-01T04:26:12.195Z,3.70
2023-05-01T04:28:38.697Z,3.63
2023-05-01T04:31:05.245Z,3.57
2023-05-01T04:33:31.678Z,3.90
2023-05-01T04:35:58.504Z,4.10
2023-05-01T04:38:24.907Z,3.67
2023-05-01T04:40:52.334Z,3.73
2023-05-01T04:43:18.650Z,3.67
2023-05-01T04:45:45.157Z,3.83
2023-05-01T04:48:11.641Z,4.03
2023-05-01T04:50:38.159Z,4.10
2023-05-01T04:53:04.535Z,3.43
2023-05-01T04:55:31.366Z,4.07
2023-05-01T04:57:57.789Z,5.00
2023-05-01T05:00:24.171Z,4.80
2023-05-01T05:02:50.670Z,4.10
2023-05-01T05:05:17.125Z,4.40
2023-05-01T05:07:43.479Z,4.27
2023-05-01T05:10:10.335Z,4.50
2023-05-01T05:12:36.788Z,3.90
2023-05-01T05:15:03.270Z,4.30
2023-05-01T05:17:29.742Z,3.43
2023-05-01T05:19:56.280Z,3.80
2023-05-01T05:22:23.614Z,3.97
2023-05-01T05:24:55.708Z,3.77
2023-05-01T05:27:22.006Z,3.03
2023-05-01T05:29:48.344Z,3.33
2023-05-01T05:32:14.840Z,3.03
2023-05-01T05:34:41.179Z,3.70
2023-05-01T05:37:08.364Z,3.70
2023-05-01T05:39:35.115Z,3.47
2023-05-01T05:42:01.444Z,3.47
2023-05-01T05:44:27.819Z,3.43
2023-05-01T05:46:54.234Z,3.45
2023-05-01T05:49:20.621Z,3.50
2023-05-01T05:51:46.997Z,3.33
2023-05-01T05:54:13.445Z,3.13
2023-05-01T05:56:39.828Z,3.20
2023-05-01T05:59:06.464Z,3.03
2023-05-01T06:01:33.020Z,2.77
2023-05-01T06:03:59.324Z,2.73
2023-05-01T06:06:26.338Z,3.00
2023-05-01T06:08:52.737Z,2.97
2023-05-01T06:11:21.465Z,2.60
2023-05-01T06:13:47.815Z,2.83
2023-05-01T06:16:15.209Z,2.83
2023-05-01T06:18:42.402Z,2.30
2023-05-01T06:21:10.312Z,2.70
2023-05-01T06:23:37.123Z,2.60
2023-05-01T06:29:44.299Z,2.77
2023-05-01T06:32:10.795Z,2.40
2023-05-01T06:34:37.122Z,2.27
2023-05-01T06:37:06.343Z,2.50
2023-05-01T06:39:32.814Z,2.20
2023-05-01T06:41:59.299Z,2.10
2023-05-01T06:44:25.752Z,2.33
2023-05-01T06:46:52.261Z,2.30
2023-05-01T06:49:18.788Z,2.10
2023-05-01T06:51:45.316Z,1.80
2023-05-01T06:54:11.616Z,2.90
2023-05-01T06:56:38.066Z,2.50
2023-05-01T06:59:04.525Z,2.00
2023-05-01T07:01:32.701Z,1.87
2023-05-01T07:04:00.354Z,2.20
2023-05-01T07:06:27.550Z,2.30
2023-05-01T07:08:54.030Z,1.77
2023-05-01T07:11:20.422Z,2.50
2023-05-01T07:13:46.766Z,1.90
2023-05-01T07:16:13.314Z,2.77
2023-05-01T07:18:39.760Z,2.37
2023-05-01T07:21:06.274Z,2.30
2023-05-01T07:23:32.733Z,1.97
2023-05-01T07:25:59.068Z,1.97
2023-05-01T07:28:25.518Z,2.60
2023-05-01T07:30:52.006Z,2.10
2023-05-01T07:33:18.691Z,2.10
2023-05-01T07:35:45.250Z,2.50
2023-05-01T07:38:12.053Z,2.40
2023-05-01T07:40:38.602Z,1.73
2023-05-01T07:43:05.218Z,2.10
2023-05-01T07:45:32.031Z,2.20
2023-05-01T07:47:58.482Z,2.47
2023-05-01T07:50:26.033Z,2.07
2023-05-01T07:52:52.747Z,2.17
2023-05-01T07:55:19.167Z,2.20
2023-05-01T07:57:45.639Z,2.30
2023-05-01T08:00:12.617Z,1.90
2023-05-01T08:02:39.195Z,2.00
2023-05-01T08:05:06.033Z,2.10
2023-05-01T08:07:32.532Z,2.37
2023-05-01T08:10:00.602Z,2.20
2023-05-01T08:12:28.842Z,2.20
2023-05-01T08:14:55.251Z,2.13
2023-05-01T08:17:21.725Z,2.37
2023-05-01T08:19:48.235Z,2.10
2023-05-01T08:22:14.601Z,2.10
2023-05-01T08:24:42.682Z,1.97
2023-05-01T08:27:09.555Z,2.20
2023-05-01T08:29:35.949Z,1.97
2023-05-01T08:32:02.437Z,2.10
2023-05-01T08:34:29.096Z,2.20
2023-05-01T08:36:55.506Z,2.20
2023-05-01T08:39:21.938Z,2.40
2023-05-01T08:41:48.754Z,2.33
2023-05-01T08:44:16.696Z,2.17
2023-05-01T08:46:55.747Z,2.20
2023-05-01T08:49:23.899Z,2.30
2023-05-01T08:51:52.871Z,2.27
2023-05-01T08:54:20.713Z,2.10
2023-05-01T08:56:47.782Z,2.33
2023-05-01T08:59:15.016Z,2.30
2023-05-01T09:01:42.823Z,2.27
2023-05-01T09:04:10.732Z,2.10
2023-05-01T09:06:37.752Z,2.20
2023-05-01T09:09:04.426Z,1.97
2023-05-01T09:11:30.824Z,1.90
2023-05-01T09:13:57.349Z,2.13
2023-05-01T09:16:23.910Z,2.10
2023-05-01T09:18:50.562Z,2.30
2023-05-01T09:21:17.323Z,2.13
2023-05-01T09:23:43.733Z,2.00
2023-05-01T09:26:10.388Z,2.07
2023-05-01T09:28:58.138Z,2.30
2023-05-01T09:31:29.451Z,2.20
2023-05-01T09:34:00.946Z,2.00
2023-05-01T09:36:30.992Z,2.10
2023-05-01T09:38:58.057Z,2.00
2023-05-01T09:41:24.539Z,2.30
2023-05-01T09:43:52.927Z,2.27
2023-05-01T09:46:20.058Z,2.10
2023-05-01T09:48:58.890Z,1.80
2023-05-01T09:51:33.316Z,2.20
2023-05-01T09:54:02.135Z,1.90
2023-05-01T09:56:33.835Z,2.00
2023-05-01T09:59:18.893Z,2.10
2023-05-01T10:01:48.259Z,2.00
2023-05-01T10:04:14.659Z,1.90
2023-05-01T10:06:41.397Z,2.10
2023-05-01T10:09:16.588Z,2.13
2023-05-01T10:11:57.550Z,1.90
2023-05-01T10:14:25.560Z,2.00
2023-05-01T10:16:53.206Z,2.00
2023-05-01T10:19:21.270Z,2.10
2023-05-01T10:21:47.697Z,2.30
2023-05-01T10:24:16.170Z,2.27
2023-05-01T10:26:46.327Z,2.00
2023-05-01T10:29:12.999Z,2.30
2023-05-01T10:31:41.532Z,1.73
2023-05-01T10:34:09.196Z,2.07
2023-05-01T10:36:44.809Z,1.73
2023-05-01T10:39:31.267Z,2.00
2023-05-01T10:41:57.638Z,1.90
2023-05-01T10:44:26.242Z,2.47
2023-05-01T10:46:53.238Z,2.00
2023-05-01T10:49:19.802Z,2.30
2023-05-01T10:51:58.349Z,2.30
2023-05-01T10:54:29.697Z,2.03
2023-05-01T10:56:58.574Z,2.17
2023-05-01T10:59:25.610Z,2.00
2023-05-01T11:01:53.104Z,2.13
2023-05-01T11:04:19.527Z,2.00
2023-05-01T11:07:17.662Z,1.80
2023-05-01T11:09:57.380Z,2.23
2023-05-01T11:12:46.064Z,1.67
2023-05-01T11:15:13.505Z,1.97
2023-05-01T11:17:39.981Z,2.00
2023-05-01T11:20:07.724Z,1.70
2023-05-01T11:22:35.126Z,1.80
2023-05-01T11:25:04.660Z,1.50
2023-05-01T11:27:31.514Z,1.50
2023-05-01T11:30:00.979Z,1.60
2023-05-01T11:32:29.961Z,1.93
2023-05-01T11:34:57.019Z,1.80
2023-05-01T11:37:44.212Z,1.87
2023-05-01T11:40:26.334Z,1.60
2023-05-01T11:43:06.892Z,2.80
2023-05-01T11:45:35.052Z,2.10
2023-05-01T11:48:04.416Z,1.90
2023-05-01T11:50:36.097Z,2.07
2023-05-01T11:53:15.411Z,1.90
2023-05-01T11:55:42.131Z,1.60
2023-05-01T11:58:08.797Z,1.70
2023-05-01T12:00:38.037Z,1.95
2023-05-01T12:03:07.091Z,1.60
2023-05-01T12:05:36.848Z,1.60
2023-05-01T12:08:23.787Z,1.40
2023-05-01T12:10:56.135Z,1.55
2023-05-01T12:13:23.583Z,1.40
2023-05-01T12:15:52.819Z,1.47
2023-05-01T12:18:21.407Z,1.33
2023-05-01T12:20:51.751Z,1.37
2023-05-01T12:23:21.759Z,1.40
2023-05-01T12:25:48.244Z,1.30
2023-05-01T12:28:20.355Z,1.40
2023-05-01T12:30:49.023Z,1.27
2023-05-01T12:33:20.152Z,1.27
2023-05-01T12:35:50.503Z,1.20
2023-05-01T12:38:21.480Z,1.20
2023-05-01T12:40:54.601Z,1.20
2023-05-01T12:43:32.626Z,1.57
2023-05-01T12:45:59.587Z,1.57
2023-05-01T12:48:26.699Z,1.57
2023-05-01T12:50:56.875Z,1.43
2023-05-01T12:53:25.167Z,1.60
2023-05-01T12:55:54.070Z,1.40
2023-05-01T12:58:20.849Z,1.37
2023-05-01T13:00:52.166Z,1.40
2023-05-01T13:03:26.872Z,2.30
2023-05-01T13:06:03.870Z,1.70
2023-05-01T13:08:32.582Z,1.47
2023-05-01T13:11:01.057Z,1.27
2023-05-01T13:13:34.548Z,1.40
2023-05-01T13:16:12.730Z,1.43
2023-05-01T13:18:58.008Z,1.97
2023-05-01T13:21:24.889Z,1.40
2023-05-01T13:23:59.883Z,1.42
2023-05-01T13:26:35.564Z,1.37
2023-05-01T13:29:03.871Z,1.40
2023-05-01T13:31:30.477Z,1.40
2023-05-01T13:33:58.837Z,1.25
2023-05-01T13:36:27.639Z,1.37
2023-05-01T13:38:55.963Z,1.50
2023-05-01T13:41:25.651Z,1.55
2023-05-01T13:43:53.976Z,1.35
2023-05-01T13:46:23.072Z,1.65
2023-05-01T13:48:50.045Z,1.48
2023-05-01T13:51:24.876Z,1.30
2023-05-01T13:53:53.714Z,1.40
2023-05-01T13:56:21.428Z,1.60
2023-05-01T13:58:47.821Z,1.60
2023-05-01T14:01:20.133Z,1.52
2023-05-01T14:03:47.575Z,1.67
2023-05-01T14:06:19.303Z,1.67
2023-05-01T14:08:47.785Z,1.40
2023-05-01T14:11:14.536Z,1.60
2023-05-01T14:13:42.818Z,1.40
2023-05-01T14:16:11.675Z,1.57
2023-05-01T14:18:47.404Z,1.20
2023-05-01T14:21:18.500Z,1.33
2023-05-01T14:23:45.388Z,1.70
2023-05-01T14:26:17.895Z,1.80
2023-05-01T14:28:46.267Z,2.30
2023-05-01T14:31:23.504Z,2.80
2023-05-01T14:33:55.019Z,2.60
2023-05-01T14:36:21.444Z,2.73
2023-05-01T14:38:49.293Z,2.27
2023-05-01T14:41:17.817Z,2.17
2023-05-01T14:43:44.328Z,2.20
2023-05-01T14:46:33.261Z,1.90
2023-05-01T14:49:01.342Z,1.90
2023-05-01T14:51:28.594Z,2.17
2023-05-01T14:53:55.528Z,2.10
2023-05-01T14:56:22.874Z,2.20
2023-05-01T14:58:49.926Z,2.47
2023-05-01T15:01:16.914Z,2.00
2023-05-01T15:03:43.807Z,2.10
2023-05-01T15:06:10.571Z,2.77
2023-05-01T15:08:38.255Z,2.17
2023-05-01T15:11:04.942Z,2.80
2023-05-01T15:13:34.315Z,2.27
2023-05-01T15:16:01.005Z,3.10
2023-05-01T15:18:27.464Z,2.80
2023-05-01T15:20:53.859Z,3.07
2023-05-01T15:23:20.685Z,3.90
2023-05-01T15:25:47.998Z,3.93
2023-05-01T15:28:14.616Z,4.30
2023-05-01T15:30:44.762Z,4.67
2023-05-01T15:33:11.399Z,4.73
2023-05-01T15:35:38.027Z,4.87
2023-05-01T15:38:04.671Z,4.47
2023-05-01T15:40:31.872Z,4.10
2023-05-01T15:42:58.507Z,4.10
2023-05-01T15:45:25.008Z,4.03
2023-05-01T15:47:51.437Z,4.27
2023-05-01T15:50:17.849Z,4.43
2023-05-01T15:52:44.384Z,5.17
2023-05-01T15:55:11.782Z,4.37
2023-05-01T15:57:38.188Z,4.23
2023-05-01T16:00:05.119Z,4.80
2023-05-01T16:02:32.646Z,5.00
2023-05-01T16:05:00.126Z,5.30
2023-05-01T16:07:29.209Z,5.63
2023-05-01T16:09:56.532Z,6.40
2023-05-01T16:12:23.090Z,6.80
2023-05-01T16:14:49.599Z,6.40
2023-05-01T16:17:18.344Z,6.57
2023-05-01T16:19:44.847Z,8.53
2023-05-01T16:22:11.642Z,11.40
2023-05-01T16:24:38.461Z,14.37
2023-05-01T16:27:04.825Z,10.63
2023-05-01T16:29:35.338Z,11.73
2023-05-01T16:32:04.545Z,11.27
2023-05-01T16:34:31.618Z,11.93
2023-05-01T16:36:58.215Z,10.00
2023-05-01T16:39:24.668Z,7.63
2023-05-01T16:41:53.414Z,7.90
2023-05-01T16:44:21.145Z,6.53
2023-05-01T16:46:55.827Z,6.00
2023-05-01T16:49:23.728Z,5.50
2023-05-01T16:51:50.556Z,4.73
2023-05-01T16:54:18.303Z,4.80
2023-05-01T16:56:44.657Z,4.87
2023-05-01T16:59:11.013Z,4.60
2023-05-01T17:01:37.486Z,4.30
2023-05-01T17:04:04.140Z,4.33
2023-05-01T17:06:31.152Z,3.67
2023-05-01T17:08:57.722Z,3.83
2023-05-01T17:11:24.716Z,3.87
2023-05-01T17:13:52.401Z,3.73
2023-05-01T17:16:19.355Z,4.33
2023-05-01T17:18:46.581Z,4.40
2023-05-01T17:21:12.969Z,4.50
2023-05-01T17:23:39.315Z,4.43
2023-05-01T17:26:05.884Z,4.10
2023-05-01T17:28:32.257Z,4.30
2023-05-01T17:30:58.722Z,4.43
2023-05-01T17:33:25.194Z,4.33
2023-05-01T17:35:51.765Z,4.20
2023-05-01T17:38:18.095Z,4.63
2023-05-01T17:40:47.153Z,4.73
2023-05-01T17:43:13.569Z,4.50
2023-05-01T17:45:40.132Z,5.23
2023-05-01T17:48:06.697Z,5.10
2023-05-01T17:50:33.088Z,5.43
2023-05-01T17:52:59.420Z,5.60
2023-05-01T17:55:27.513Z,5.80
2023-05-01T17:57:53.871Z,6.67
2023-05-01T18:00:21.125Z,6.00
2023-05-01T18:02:48.121Z,5.00
2023-05-01T18:05:14.771Z,5.33
2023-05-01T18:07:41.237Z,4.73
2023-05-01T18:10:08.426Z,4.67
2023-05-01T18:12:35.136Z,4.90
2023-05-01T18:15:01.525Z,4.50
2023-05-01T18:17:28.096Z,4.20
2023-05-01T18:19:54.880Z,4.70
2023-05-01T18:22:21.305Z,4.97
2023-05-01T18:24:48.178Z,4.60
2023-05-01T18:27:14.570Z,4.93
2023-05-01T18:29:40.913Z,5.00
2023-05-01T18:32:09.364Z,4.93
2023-05-01T18:34:36.438Z,4.10
2023-05-01T18:37:02.814Z,4.10
2023-05-01T18:39:29.256Z,4.50
2023-05-01T18:41:55.618Z,4.33
2023-05-01T18:44:22.269Z,4.10
2023-05-01T18:46:48.756Z,3.93
2023-05-01T18:49:15.444Z,4.00
2023-05-01T18:51:41.807Z,3.93
2023-05-01T18:54:09.842Z,4.10
2023-05-01T18:56:36.379Z,3.80
2023-05-01T18:59:02.707Z,4.23
2023-05-01T19:01:29.221Z,4.30
2023-05-01T19:03:58.923Z,4.30
2023-05-01T19:06:26.613Z,4.57
2023-05-01T19:08:53.570Z,4.53
2023-05-01T19:11:20.079Z,4.83
2023-05-01T19:13:46.671Z,4.13
2023-05-01T19:16:13.656Z,4.10
2023-05-01T19:18:40.787Z,4.27
2023-05-01T19:21:07.322Z,4.37
2023-05-01T19:23:35.617Z,4.80
2023-05-01T19:26:04.196Z,4.23
2023-05-01T19:28:31.146Z,4.57
2023-05-01T19:30:57.650Z,4.40
2023-05-01T19:33:24.022Z,4.50
2023-05-01T19:35:50.529Z,5.00
2023-05-01T19:38:17.054Z,4.53
2023-05-01T19:40:44.818Z,4.93
2023-05-01T19:43:13.252Z,5.00
2023-05-01T19:45:40.023Z,4.93
2023-05-01T19:48:06.837Z,4.77
2023-05-01T19:50:33.573Z,5.20
2023-05-01T19:53:00.027Z,4.83
2023-05-01T19:55:26.374Z,5.50
2023-05-01T19:57:52.753Z,6.00
2023-05-01T20:00:19.389Z,5.53
2023-05-01T20:02:47.507Z,6.13
2023-05-01T20:05:14.290Z,5.93
2023-05-01T20:07:41.336Z,5.53
2023-05-01T20:10:09.583Z,5.87
2023-05-01T20:12:35.878Z,6.20
2023-05-01T20:15:02.304Z,6.03
2023-05-01T20:17:28.890Z,6.20
2023-05-01T20:19:55.290Z,6.20
2023-05-01T20:22:21.675Z,6.10
2023-05-01T20:24:48.044Z,5.67
2023-05-01T20:27:15.601Z,5.47
2023-05-01T20:29:42.341Z,5.80
2023-05-01T20:32:08.890Z,5.90
2023-05-01T20:34:35.226Z,6.37
2023-05-01T20:37:01.706Z,6.50
2023-05-01T20:39:28.759Z,6.07
2023-05-01T20:41:56.661Z,6.00
2023-05-01T20:44:25.959Z,6.30
2023-05-01T20:46:52.597Z,5.60
2023-05-01T20:49:20.405Z,5.77
2023-05-01T20:51:46.850Z,5.90
2023-05-01T20:54:13.185Z,5.60
2023-05-01T20:56:39.546Z,5.73
2023-05-01T20:59:06.846Z,7.10
2023-05-01T21:01:33.231Z,6.87
2023-05-01T21:03:59.972Z,6.47
2023-05-01T21:06:27.338Z,7.10
2023-05-01T21:08:53.950Z,6.80
2023-05-01T21:11:20.910Z,7.57
2023-05-01T21:13:47.401Z,7.40
2023-05-01T21:16:18.261Z,7.80
2023-05-01T21:18:44.688Z,7.10
2023-05-01T21:21:16.308Z,7.23
2023-05-01T21:23:48.919Z,7.30
2023-05-01T21:26:16.266Z,7.07
2023-05-01T21:28:43.569Z,7.37
2023-05-01T21:31:13.641Z,6.70
2023-05-01T21:33:43.284Z,6.93
2023-05-01T21:36:10.479Z,6.70
2023-05-01T21:38:37.106Z,6.93
2023-05-01T21:41:03.585Z,7.30
2023-05-01T21:43:32.594Z,6.53
2023-05-01T21:45:58.984Z,6.53
2023-05-01T21:48:25.664Z,6.63
2023-05-01T21:50:52.141Z,7.03
2023-05-01T21:53:18.492Z,7.30
2023-05-01T21:55:46.613Z,6.97
2023-05-01T21:58:13.738Z,7.43
2023-05-01T22:00:41.631Z,6.90
2023-05-01T22:03:08.859Z,7.03
2023-05-01T22:05:35.287Z,6.63
2023-05-01T22:08:01.691Z,6.60
2023-05-01T22:10:28.664Z,6.70
2023-05-01T22:12:55.117Z,6.03
2023-05-01T22:15:21.536Z,6.80
2023-05-01T22:17:48.122Z,6.23
2023-05-01T22:20:14.628Z,6.70
2023-05-01T22:22:42.979Z,6.57
2023-05-01T22:25:11.546Z,5.83
2023-05-01T22:27:38.291Z,6.00
2023-05-01T22:30:05.428Z,6.37
2023-05-01T22:32:32.270Z,6.13
2023-05-01T22:34:58.628Z,6.60
2023-05-01T22:37:25.690Z,6.80
2023-05-01T22:39:53.155Z,7.40
2023-05-01T22:42:19.877Z,9.20
2023-05-01T22:44:46.284Z,9.17
2023-05-01T22:47:12.710Z,8.90
2023-05-01T22:49:39.165Z,7.83
2023-05-01T22:52:05.609Z,7.97
2023-05-01T22:54:32.007Z,7.37
2023-05-01T22:56:58.453Z,8.30
2023-05-01T22:59:25.841Z,7.97
2023-05-01T23:01:52.348Z,7.57
2023-05-01T23:04:18.793Z,10.40
2023-05-01T23:06:45.365Z,9.97
2023-05-01T23:09:12.076Z,8.37
2023-05-01T23:11:40.170Z,7.80
2023-05-01T23:14:06.597Z,7.53
2023-05-01T23:16:41.456Z,7.03
2023-05-01T23:19:24.586Z,7.00
2023-05-01T23:22:02.222Z,7.07
2023-05-01T23:24:40.381Z,6.97
2023-05-01T23:27:06.888Z,7.07
2023-05-01T23:29:33.262Z,7.30
2023-05-01T23:31:59.818Z,7.03
2023-05-01T23:34:28.412Z,6.07
2023-05-01T23:36:54.782Z,6.57
2023-05-01T23:39:21.209Z,6.60
2023-05-01T23:41:47.595Z,7.27
2023-05-01T23:44:13.962Z,7.50
2023-05-01T23:46:40.590Z,7.13
2023-05-01T23:49:06.996Z,6.97
2023-05-01T23:51:33.422Z,7.17
2023-05-01T23:54:00.372Z,6.80
2023-05-01T23:56:26.812Z,7.03
2023-05-01T23:58:53.138Z,6.77
